createdAt,value
2022-08-29T00:01:33.017Z,17.20
2022-08-29T00:04:01.433Z,17.56
2022-08-29T00:06:30.038Z,17.75
2022-08-29T00:08:58.125Z,17.71
2022-08-29T00:11:26.167Z,17.67
2022-08-29T00:13:54.277Z,17.42
2022-08-29T00:16:22.387Z,17.48
2022-08-29T00:18:51.870Z,17.36
2022-08-29T00:21:20.037Z,17.23
2022-08-29T00:23:48.112Z,17.23
2022-08-29T00:26:16.269Z,17.39
2022-08-29T00:28:44.293Z,17.50
2022-08-29T00:31:12.428Z,17.73
2022-08-29T00:33:40.715Z,17.62
2022-08-29T00:36:11.443Z,17.49
2022-08-29T00:38:39.513Z,17.35
2022-08-29T00:41:09.926Z,17.13
2022-08-29T00:43:39.161Z,17.06
2022-08-29T00:46:19.317Z,17.07
2022-08-29T00:48:51.722Z,17.45
2022-08-29T00:51:24.379Z,17.37
2022-08-29T00:53:55.695Z,17.29
2022-08-29T00:56:23.856Z,17.22
2022-08-29T00:58:54.723Z,17.33
2022-08-29T01:01:24.119Z,17.51
2022-08-29T01:03:52.588Z,17.55
2022-08-29T01:06:21.746Z,17.58
2022-08-29T01:08:57.307Z,17.62
2022-08-29T01:11:44.243Z,17.62
2022-08-29T01:14:12.337Z,17.59
2022-08-29T01:16:40.893Z,17.38
2022-08-29T01:19:15.375Z,17.38
2022-08-29T01:21:50.594Z,17.41
2022-08-29T01:24:38.884Z,17.45
2022-08-29T01:27:07.168Z,17.45
2022-08-29T01:29:36.155Z,17.47
2022-08-29T01:32:05.075Z,17.51
2022-08-29T01:34:33.202Z,17.44
2022-08-29T01:37:02.974Z,17.67
2022-08-29T01:39:33.058Z,17.73
2022-08-29T01:42:05.083Z,17.78
2022-08-29T01:44:33.166Z,17.65
2022-08-29T01:47:03.262Z,17.49
2022-08-29T01:49:32.974Z,17.44
2022-08-29T01:52:01.934Z,17.37
2022-08-29T01:54:30.925Z,17.57
2022-08-29T01:56:58.913Z,17.55
2022-08-29T01:59:30.500Z,17.52
2022-08-29T02:02:02.723Z,17.52
2022-08-29T02:04:31.269Z,17.55
2022-08-29T02:06:59.603Z,17.58
2022-08-29T02:09:28.859Z,17.64
2022-08-29T02:11:58.273Z,17.57
2022-08-29T02:14:26.438Z,17.65
2022-08-29T02:16:55.991Z,17.65
2022-08-29T02:19:24.114Z,17.45
2022-08-29T02:21:52.517Z,17.51
2022-08-29T02:24:25.724Z,17.62
2022-08-29T02:26:54.519Z,17.55
2022-08-29T02:29:23.150Z,17.52
2022-08-29T02:31:51.425Z,17.58
2022-08-29T02:34:21.188Z,17.58
2022-08-29T02:36:49.420Z,17.48
2022-08-29T02:39:18.189Z,17.51
2022-08-29T02:41:46.341Z,17.70
2022-08-29T02:44:14.457Z,17.78
2022-08-29T02:46:42.537Z,17.56
2022-08-29T02:49:10.648Z,17.47
2022-08-29T02:51:39.996Z,17.63
2022-08-29T02:54:08.042Z,17.33
2022-08-29T02:56:36.831Z,17.49
2022-08-29T02:59:05.036Z,17.53
2022-08-29T03:01:33.368Z,17.51
2022-08-29T03:04:02.298Z,17.46
2022-08-29T03:06:30.265Z,17.17
2022-08-29T03:08:59.591Z,17.00
2022-08-29T03:11:28.733Z,17.09
2022-08-29T03:13:57.680Z,17.14
2022-08-29T03:16:26.723Z,17.11
2022-08-29T03:18:54.772Z,16.94
2022-08-29T03:21:25.169Z,17.10
2022-08-29T03:23:53.702Z,17.22
2022-08-29T03:26:23.721Z,17.24
2022-08-29T03:28:51.771Z,17.71
2022-08-29T03:31:19.901Z,17.35
2022-08-29T03:33:48.156Z,17.42
2022-08-29T03:36:16.192Z,17.32
2022-08-29T03:38:46.454Z,17.34
2022-08-29T03:41:23.346Z,17.55
2022-08-29T03:43:51.465Z,17.36
2022-08-29T03:46:20.056Z,17.30
2022-08-29T03:48:48.512Z,17.47
2022-08-29T03:51:16.989Z,17.42
2022-08-29T03:53:45.778Z,17.31
2022-08-29T03:56:18.172Z,17.15
2022-08-29T03:58:52.829Z,17.31
2022-08-29T04:01:22.839Z,17.51
2022-08-29T04:03:51.647Z,17.39
2022-08-29T04:06:20.204Z,17.36
2022-08-29T04:08:49.084Z,17.41
2022-08-29T04:11:19.954Z,17.03
2022-08-29T04:13:49.911Z,16.99
2022-08-29T04:16:22.648Z,16.90
2022-08-29T04:18:51.176Z,16.85
2022-08-29T04:21:19.994Z,16.76
2022-08-29T04:23:48.552Z,16.92
2022-08-29T04:26:35.796Z,16.84
2022-08-29T04:29:06.484Z,16.53
2022-08-29T04:31:34.717Z,16.50
2022-08-29T04:34:02.854Z,16.70
2022-08-29T04:36:31.210Z,16.66
2022-08-29T04:38:59.387Z,16.76
2022-08-29T04:41:27.641Z,16.67
2022-08-29T04:43:56.188Z,16.45
2022-08-29T04:46:26.011Z,16.70
2022-08-29T04:48:54.652Z,16.54
2022-08-29T04:51:23.673Z,16.67
2022-08-29T04:53:53.421Z,16.54
2022-08-29T04:56:22.805Z,16.47
2022-08-29T04:58:52.188Z,16.19
2022-08-29T05:01:22.268Z,15.98
2022-08-29T05:03:54.447Z,15.95
2022-08-29T05:06:24.359Z,16.32
2022-08-29T05:08:59.353Z,16.27
2022-08-29T05:11:29.955Z,16.13
2022-08-29T05:13:58.507Z,15.94
2022-08-29T05:16:26.879Z,16.13
2022-08-29T05:18:56.436Z,16.55
2022-08-29T05:21:28.483Z,16.59
2022-08-29T05:23:57.491Z,16.80
2022-08-29T05:26:26.250Z,16.46
2022-08-29T05:28:54.273Z,16.42
2022-08-29T05:31:22.707Z,16.50
2022-08-29T05:33:51.076Z,16.63
2022-08-29T05:36:21.030Z,16.44
2022-08-29T05:38:49.496Z,16.49
2022-08-29T05:41:19.266Z,16.50
2022-08-29T05:43:47.433Z,16.56
2022-08-29T05:46:15.648Z,16.87
2022-08-29T05:48:48.581Z,16.89
2022-08-29T05:51:18.866Z,17.05
2022-08-29T05:53:48.577Z,16.99
2022-08-29T05:56:23.846Z,17.14
2022-08-29T05:58:52.129Z,17.11
2022-08-29T06:01:25.900Z,17.29
2022-08-29T06:03:55.089Z,17.41
2022-08-29T06:06:26.004Z,17.29
2022-08-29T06:08:56.681Z,17.25
2022-08-29T06:11:27.116Z,17.25
2022-08-29T06:13:55.860Z,17.51
2022-08-29T06:16:25.957Z,17.61
2022-08-29T06:18:54.695Z,17.84
2022-08-29T06:21:23.804Z,17.94
2022-08-29T06:23:52.182Z,18.13
2022-08-29T06:26:21.912Z,17.98
2022-08-29T06:28:50.207Z,17.94
2022-08-29T06:31:22.534Z,18.19
2022-08-29T06:33:52.632Z,18.35
2022-08-29T06:36:21.201Z,18.34
2022-08-29T06:38:49.595Z,18.54
2022-08-29T06:41:19.912Z,18.37
2022-08-29T06:43:49.756Z,18.33
2022-08-29T06:46:23.740Z,18.36
2022-08-29T06:48:52.345Z,18.54
2022-08-29T06:51:20.648Z,18.58
2022-08-29T06:53:49.102Z,18.48
2022-08-29T06:56:17.730Z,18.69
2022-08-29T06:58:46.514Z,18.69
2022-08-29T07:01:18.564Z,18.62
2022-08-29T07:03:49.107Z,18.56
2022-08-29T07:06:20.810Z,18.58
2022-08-29T07:08:55.910Z,18.51
2022-08-29T07:11:25.214Z,18.07
2022-08-29T07:13:54.630Z,17.99
2022-08-29T07:16:24.306Z,17.94
2022-08-29T07:18:54.822Z,18.39
2022-08-29T07:21:28.453Z,18.16
2022-08-29T07:23:58.698Z,18.14
2022-08-29T07:26:29.996Z,18.69
2022-08-29T07:29:00.632Z,18.50
2022-08-29T07:31:33.674Z,18.89
2022-08-29T07:34:03.020Z,18.91
2022-08-29T07:36:34.278Z,18.97
2022-08-29T07:39:04.104Z,18.51
2022-08-29T07:41:34.181Z,18.58
2022-08-29T07:44:07.237Z,18.79
2022-08-29T07:46:37.260Z,19.09
2022-08-29T07:49:07.558Z,18.70
2022-08-29T07:51:36.527Z,18.64
2022-08-29T07:54:04.956Z,18.74
2022-08-29T07:56:38.064Z,18.99
2022-08-29T07:59:07.264Z,18.87
2022-08-29T08:01:37.381Z,18.89
2022-08-29T08:04:06.238Z,18.98
2022-08-29T08:06:37.018Z,19.20
2022-08-29T08:09:07.237Z,19.41
2022-08-29T08:11:36.440Z,20.08
2022-08-29T08:14:05.832Z,19.99
2022-08-29T08:16:37.656Z,19.77
2022-08-29T08:19:06.615Z,19.97
2022-08-29T08:21:34.706Z,20.07
2022-08-29T08:24:03.716Z,20.15
2022-08-29T08:26:43.645Z,20.15
2022-08-29T08:29:12.896Z,20.27
2022-08-29T08:31:45.504Z,19.72
2022-08-29T08:34:16.605Z,20.07
2022-08-29T08:36:55.841Z,19.91
2022-08-29T08:39:27.807Z,19.68
2022-08-29T08:41:59.616Z,19.96
2022-08-29T08:44:45.383Z,19.84
2022-08-29T08:47:16.140Z,19.83
2022-08-29T08:49:50.332Z,19.74
2022-08-29T08:52:21.052Z,20.62
2022-08-29T08:54:55.376Z,20.75
2022-08-29T08:57:27.665Z,20.87
2022-08-29T09:00:00.583Z,20.55
2022-08-29T09:02:36.759Z,20.10
2022-08-29T09:05:20.146Z,20.77
2022-08-29T09:07:53.073Z,20.55
2022-08-29T09:10:29.090Z,20.13
2022-08-29T09:13:02.495Z,20.78
2022-08-29T09:15:34.690Z,20.97
2022-08-29T09:18:08.156Z,21.19
2022-08-29T09:20:40.059Z,21.53
2022-08-29T09:23:14.411Z,21.50
2022-08-29T09:25:42.783Z,21.39
2022-08-29T09:28:11.260Z,21.62
2022-08-29T09:30:46.651Z,21.54
2022-08-29T09:33:17.680Z,21.37
2022-08-29T09:35:49.205Z,21.66
2022-08-29T09:38:26.356Z,21.84
2022-08-29T09:40:58.218Z,21.63
2022-08-29T09:43:32.121Z,21.35
2022-08-29T09:46:09.578Z,20.88
2022-08-29T09:48:41.785Z,21.17
2022-08-29T09:51:16.926Z,21.74
2022-08-29T09:53:47.227Z,22.12
2022-08-29T09:56:19.477Z,21.94
2022-08-29T09:58:59.526Z,21.73
2022-08-29T10:01:28.595Z,22.39
2022-08-29T10:04:01.355Z,22.64
2022-08-29T10:06:32.220Z,22.39
2022-08-29T10:09:04.379Z,22.68
2022-08-29T10:11:38.529Z,22.62
2022-08-29T10:14:12.594Z,22.32
2022-08-29T10:16:47.665Z,21.02
2022-08-29T10:19:19.494Z,22.25
2022-08-29T10:22:00.207Z,22.49
2022-08-29T10:24:37.913Z,22.46
2022-08-29T10:27:15.891Z,22.05
2022-08-29T10:30:09.656Z,22.29
2022-08-29T10:33:04.909Z,21.61
2022-08-29T10:35:39.201Z,21.19
2022-08-29T10:38:13.332Z,21.96
2022-08-29T10:40:43.774Z,21.91
2022-08-29T10:43:30.824Z,22.20
2022-08-29T10:46:08.167Z,21.86
2022-08-29T10:48:39.504Z,20.84
2022-08-29T10:51:17.724Z,21.34
2022-08-29T10:53:49.161Z,21.90
2022-08-29T10:56:23.977Z,22.48
2022-08-29T10:59:04.001Z,22.18
2022-08-29T11:01:35.765Z,22.18
2022-08-29T11:04:17.497Z,21.87
2022-08-29T11:06:51.650Z,21.42
2022-08-29T11:09:24.102Z,21.93
2022-08-29T11:12:06.683Z,22.00
2022-08-29T11:14:38.182Z,22.26
2022-08-29T11:17:14.059Z,22.63
2022-08-29T11:19:59.087Z,22.74
2022-08-29T11:22:36.422Z,23.09
2022-08-29T11:25:12.105Z,22.78
2022-08-29T11:27:47.826Z,22.83
2022-08-29T11:30:26.099Z,22.93
2022-08-29T11:33:04.940Z,23.04
2022-08-29T11:35:40.515Z,22.60
2022-08-29T11:38:59.768Z,22.80
2022-08-29T11:41:30.449Z,22.66
2022-08-29T11:44:09.181Z,22.35
2022-08-29T11:46:53.461Z,22.61
2022-08-29T11:49:39.935Z,22.52
2022-08-29T11:52:29.097Z,21.59
2022-08-29T11:55:35.936Z,21.47
2022-08-29T11:58:11.857Z,21.59
2022-08-29T12:00:48.055Z,21.58
2022-08-29T12:03:46.252Z,21.77
2022-08-29T12:06:33.010Z,22.00
2022-08-29T12:09:13.139Z,22.10
2022-08-29T12:12:18.643Z,22.71
2022-08-29T12:14:48.318Z,22.68
2022-08-29T12:18:02.131Z,22.91
2022-08-29T12:20:42.137Z,21.74
2022-08-29T12:23:21.455Z,21.75
2022-08-29T12:28:58.593Z,21.88
2022-08-29T12:31:51.721Z,22.37
2022-08-29T12:34:39.708Z,23.27
2022-08-29T12:37:34.116Z,23.37
2022-08-29T12:40:32.770Z,23.23
2022-08-29T12:43:29.430Z,23.57
2022-08-29T12:46:00.459Z,22.94
2022-08-29T12:48:30.937Z,23.18
2022-08-29T12:51:00.919Z,23.17
2022-08-29T12:53:33.409Z,23.62
2022-08-29T12:56:02.836Z,23.76
2022-08-29T12:58:39.662Z,23.80
2022-08-29T13:01:21.462Z,24.15
2022-08-29T13:04:01.001Z,24.17
2022-08-29T13:06:29.235Z,24.74
2022-08-29T13:08:57.408Z,24.68
2022-08-29T13:11:27.800Z,24.85
2022-08-29T13:14:06.629Z,25.08
2022-08-29T13:16:36.208Z,24.43
2022-08-29T13:19:12.011Z,24.61
2022-08-29T13:21:40.189Z,24.64
2022-08-29T13:24:12.747Z,24.51
2022-08-29T13:26:50.645Z,24.47
2022-08-29T13:29:36.553Z,24.49
2022-08-29T13:32:20.387Z,24.98
2022-08-29T13:35:06.256Z,25.04
2022-08-29T13:37:37.283Z,25.47
2022-08-29T13:40:31.462Z,25.14
2022-08-29T13:43:00.977Z,25.07
2022-08-29T13:45:29.382Z,25.77
2022-08-29T13:48:10.455Z,25.32
2022-08-29T13:50:38.533Z,26.11
2022-08-29T13:53:07.138Z,25.98
2022-08-29T13:55:35.390Z,24.65
2022-08-29T13:58:03.729Z,25.16
2022-08-29T14:00:34.998Z,25.18
2022-08-29T14:03:09.320Z,25.69
2022-08-29T14:05:39.368Z,26.30
2022-08-29T14:08:07.817Z,26.71
2022-08-29T14:10:36.527Z,26.72
2022-08-29T14:13:04.939Z,26.43
2022-08-29T14:15:36.271Z,26.04
2022-08-29T14:18:06.140Z,25.59
2022-08-29T14:20:39.086Z,25.40
2022-08-29T14:23:07.587Z,25.72
2022-08-29T14:25:35.627Z,26.19
2022-08-29T14:28:03.936Z,26.87
2022-08-29T14:30:32.049Z,26.69
2022-08-29T14:33:00.114Z,26.65
2022-08-29T14:35:32.784Z,26.86
2022-08-29T14:38:03.679Z,27.64
2022-08-29T14:40:34.053Z,27.16
2022-08-29T14:43:03.332Z,26.89
2022-08-29T14:45:33.049Z,26.66
2022-08-29T14:48:03.403Z,26.10
2022-08-29T14:50:35.123Z,25.59
2022-08-29T14:53:07.481Z,27.22
2022-08-29T14:55:38.697Z,27.64
2022-08-29T14:58:09.455Z,27.06
2022-08-29T15:00:51.513Z,28.01
2022-08-29T15:03:22.581Z,28.38
2022-08-29T15:05:52.121Z,27.51
2022-08-29T15:08:20.545Z,27.80
2022-08-29T15:10:48.784Z,28.07
2022-08-29T15:13:19.129Z,27.29
2022-08-29T15:15:49.187Z,27.17
2022-08-29T15:19:00.707Z,26.76
2022-08-29T15:21:16.880Z,26.94
2022-08-29T15:23:49.008Z,26.16
2022-08-29T15:26:17.183Z,25.91
2022-08-29T15:28:45.238Z,25.39
2022-08-29T15:31:16.285Z,26.21
2022-08-29T15:33:47.601Z,26.27
2022-08-29T15:36:17.089Z,25.52
2022-08-29T15:38:45.294Z,26.07
2022-08-29T15:41:19.293Z,26.66
2022-08-29T15:43:47.399Z,27.31
2022-08-29T15:46:15.462Z,27.81
2022-08-29T15:48:46.159Z,28.26
2022-08-29T15:51:14.284Z,27.78
2022-08-29T15:53:48.149Z,27.06
2022-08-29T15:56:23.187Z,26.13
2022-08-29T15:58:53.697Z,26.80
2022-08-29T16:01:22.681Z,26.17
2022-08-29T16:03:52.319Z,26.41
2022-08-29T16:06:20.481Z,27.46
2022-08-29T16:08:55.221Z,28.06
2022-08-29T16:11:23.722Z,27.78
2022-08-29T16:14:08.307Z,28.22
2022-08-29T16:16:41.538Z,28.68
2022-08-29T16:19:10.020Z,28.60
2022-08-29T16:21:38.700Z,27.90
2022-08-29T16:24:08.769Z,28.54
2022-08-29T16:26:37.043Z,29.07
2022-08-29T16:29:09.228Z,29.29
2022-08-29T16:31:38.061Z,28.83
2022-08-29T16:34:06.252Z,28.75
2022-08-29T16:36:34.938Z,29.11
2022-08-29T16:39:05.193Z,28.89
2022-08-29T16:41:34.841Z,28.14
2022-08-29T16:44:03.045Z,26.68
2022-08-29T16:46:31.923Z,26.50
2022-08-29T16:49:00.610Z,25.64
2022-08-29T16:51:29.472Z,26.75
2022-08-29T16:54:00.140Z,27.96
2022-08-29T16:56:29.420Z,28.26
2022-08-29T16:59:01.866Z,28.25
2022-08-29T17:01:32.958Z,28.49
2022-08-29T17:04:02.599Z,28.95
2022-08-29T17:06:31.121Z,28.25
2022-08-29T17:08:58.768Z,28.42
2022-08-29T17:11:26.145Z,28.14
2022-08-29T17:13:55.579Z,28.13
2022-08-29T17:16:24.171Z,28.30
2022-08-29T17:18:52.431Z,28.05
2022-08-29T17:21:20.835Z,27.62
2022-08-29T17:23:50.043Z,26.73
2022-08-29T17:26:20.865Z,27.03
2022-08-29T17:28:49.177Z,26.88
2022-08-29T17:31:17.841Z,26.14
2022-08-29T17:33:47.635Z,26.58
2022-08-29T17:36:16.360Z,26.16
2022-08-29T17:38:47.743Z,26.18
2022-08-29T17:41:19.345Z,25.94
2022-08-29T17:43:49.418Z,25.36
2022-08-29T17:46:19.733Z,24.50
2022-08-29T17:48:49.462Z,24.67
2022-08-29T17:51:19.123Z,24.22
2022-08-29T17:53:47.767Z,23.88
2022-08-29T17:56:21.046Z,23.35
2022-08-29T17:58:49.365Z,23.89
2022-08-29T18:01:17.815Z,23.48
2022-08-29T18:03:53.101Z,23.40
2022-08-29T18:06:33.656Z,22.74
2022-08-29T18:09:15.347Z,22.88
2022-08-29T18:11:45.317Z,22.67
2022-08-29T18:14:13.547Z,22.63
2022-08-29T18:16:41.625Z,22.40
2022-08-29T18:19:09.873Z,22.40
2022-08-29T18:21:41.086Z,22.02
2022-08-29T18:24:16.003Z,22.24
2022-08-29T18:26:46.100Z,21.62
2022-08-29T18:29:14.403Z,21.64
2022-08-29T18:31:43.408Z,21.69
2022-08-29T18:34:11.861Z,21.60
2022-08-29T18:36:43.768Z,21.80
2022-08-29T18:39:13.081Z,21.36
2022-08-29T18:41:41.655Z,21.28
2022-08-29T18:44:10.180Z,21.10
2022-08-29T18:46:40.974Z,21.33
2022-08-29T18:49:09.039Z,21.62
2022-08-29T18:51:41.209Z,21.59
2022-08-29T18:54:10.664Z,21.66
2022-08-29T18:56:39.268Z,21.66
2022-08-29T18:59:07.308Z,21.70
2022-08-29T19:01:36.449Z,21.56
2022-08-29T19:04:04.612Z,21.57
2022-08-29T19:06:32.663Z,21.47
2022-08-29T19:09:02.115Z,21.33
2022-08-29T19:11:30.117Z,21.27
2022-08-29T19:13:58.314Z,21.09
2022-08-29T19:16:26.649Z,20.90
2022-08-29T19:18:54.704Z,20.89
2022-08-29T19:21:21.676Z,20.94
2022-08-29T19:23:52.714Z,20.91
2022-08-29T19:26:24.576Z,20.94
2022-08-29T19:28:56.648Z,20.62
2022-08-29T19:31:27.674Z,20.60
2022-08-29T19:33:56.061Z,20.65
2022-08-29T19:36:24.863Z,20.38
2022-08-29T19:38:53.081Z,20.33
2022-08-29T19:41:22.603Z,19.92
2022-08-29T19:43:53.144Z,19.93
2022-08-29T19:46:23.163Z,20.15
2022-08-29T19:48:52.473Z,19.92
2022-08-29T19:51:25.051Z,19.30
2022-08-29T19:53:53.811Z,19.16
2022-08-29T19:56:23.251Z,19.15
2022-08-29T19:58:51.319Z,19.00
2022-08-29T20:01:19.443Z,18.93
2022-08-29T20:03:47.669Z,19.01
2022-08-29T20:06:17.205Z,18.76
2022-08-29T20:08:46.912Z,18.36
2022-08-29T20:11:18.251Z,18.94
2022-08-29T20:13:50.457Z,19.10
2022-08-29T20:16:21.514Z,19.15
2022-08-29T20:18:50.304Z,19.24
2022-08-29T20:21:19.323Z,19.22
2022-08-29T20:23:49.448Z,19.22
2022-08-29T20:26:19.624Z,18.67
2022-08-29T20:28:50.825Z,18.39
2022-08-29T20:31:19.403Z,18.02
2022-08-29T20:33:48.356Z,17.73
2022-08-29T20:36:38.784Z,18.32
2022-08-29T20:39:08.087Z,18.39
2022-08-29T20:41:36.095Z,18.37
2022-08-29T20:44:09.780Z,18.27
2022-08-29T20:46:40.728Z,18.34
2022-08-29T20:49:09.207Z,18.17
2022-08-29T20:51:37.567Z,18.17
2022-08-29T20:54:06.273Z,17.88
2022-08-29T20:56:34.240Z,17.62
2022-08-29T20:59:02.192Z,17.51
2022-08-29T21:01:31.819Z,17.26
2022-08-29T21:04:20.877Z,17.08
2022-08-29T21:06:49.556Z,17.18
2022-08-29T21:09:17.501Z,17.51
2022-08-29T21:11:45.646Z,17.56
2022-08-29T21:14:14.065Z,17.69
2022-08-29T21:16:43.567Z,17.95
2022-08-29T21:19:12.332Z,17.89
2022-08-29T21:21:41.579Z,17.93
2022-08-29T21:24:10.488Z,17.76
2022-08-29T21:26:38.856Z,17.78
2022-08-29T21:29:07.695Z,17.95
2022-08-29T21:31:36.187Z,17.90
2022-08-29T21:34:07.277Z,17.88
2022-08-29T21:36:36.948Z,17.59
2022-08-29T21:39:07.333Z,17.24
2022-08-29T21:41:38.599Z,17.50
2022-08-29T21:44:06.933Z,17.40
2022-08-29T21:46:36.674Z,17.50
2022-08-29T21:49:07.131Z,17.13
2022-08-29T21:51:35.902Z,16.64
2022-08-29T21:54:04.174Z,16.74
2022-08-29T21:56:33.498Z,16.84
2022-08-29T21:59:02.104Z,16.76
2022-08-29T22:01:33.048Z,16.90
2022-08-29T22:04:02.820Z,17.01
2022-08-29T22:06:33.771Z,16.92
2022-08-29T22:09:01.747Z,17.20
2022-08-29T22:11:37.696Z,16.94
2022-08-29T22:14:06.231Z,16.92
2022-08-29T22:16:33.494Z,17.06
2022-08-29T22:19:03.191Z,17.15
2022-08-29T22:21:34.870Z,16.98
2022-08-29T22:24:03.632Z,16.72
2022-08-29T22:26:32.027Z,16.86
2022-08-29T22:29:00.028Z,17.00
2022-08-29T22:31:29.114Z,16.72
2022-08-29T22:33:57.121Z,16.78
2022-08-29T22:36:25.110Z,16.58
2022-08-29T22:38:56.482Z,16.48
2022-08-29T22:41:25.438Z,15.90
2022-08-29T22:44:16.552Z,15.46
2022-08-29T22:46:43.694Z,15.52
2022-08-29T22:49:11.864Z,15.72
2022-08-29T22:51:39.809Z,16.01
2022-08-29T22:54:26.870Z,16.19
2022-08-29T22:56:54.850Z,16.09
2022-08-29T22:59:23.251Z,16.46
2022-08-29T23:01:51.411Z,16.47
2022-08-29T23:04:19.421Z,16.48
2022-08-29T23:06:47.563Z,16.50
2022-08-29T23:09:17.337Z,16.24
2022-08-29T23:11:45.396Z,16.16
2022-08-29T23:14:14.080Z,16.16
2022-08-29T23:16:43.254Z,16.37
2022-08-29T23:19:14.485Z,16.41
2022-08-29T23:21:44.435Z,16.29
2022-08-29T23:24:12.583Z,16.54
2022-08-29T23:26:42.880Z,16.78
2022-08-29T23:29:10.895Z,16.82
2022-08-29T23:31:38.945Z,16.52
2022-08-29T23:34:07.293Z,16.35
2022-08-29T23:36:35.663Z,16.45
2022-08-29T23:39:05.828Z,16.68
2022-08-29T23:41:34.308Z,16.77
2022-08-29T23:44:04.111Z,16.43
2022-08-29T23:46:33.204Z,16.39
2022-08-29T23:49:01.309Z,15.97
2022-08-29T23:51:29.673Z,15.89
2022-08-29T23:53:58.221Z,16.01
2022-08-29T23:56:26.986Z,15.59
2022-08-29T23:58:56.441Z,15.14
